createdAt,value
2022-07-31T00:04:32.396Z,98078.03
2022-07-31T00:14:34.881Z,98074.34
2022-07-31T00:24:37.205Z,98070.38
2022-07-31T00:34:39.616Z,98059.06
2022-07-31T00:44:41.894Z,98051.00
2022-07-31T00:54:44.194Z,98056.25
2022-07-31T01:04:46.470Z,98044.03
2022-07-31T01:14:55.256Z,98060.03
2022-07-31T01:25:19.374Z,98045.72
2022-07-31T01:35:24.017Z,98046.59
2022-07-31T01:45:27.974Z,98042.91
2022-07-31T01:56:01.974Z,98043.28
2022-07-31T02:05:55.706Z,98041.06
2022-07-31T02:15:59.608Z,98042.75
2022-07-31T02:26:03.554Z,98047.81
2022-07-31T02:36:07.219Z,98047.97
2022-07-31T02:46:10.703Z,98053.56
2022-07-31T02:56:13.695Z,98059.06
2022-07-31T03:06:16.580Z,98048.66
2022-07-31T03:16:19.368Z,98052.81
2022-07-31T03:26:22.048Z,98049.37
2022-07-31T03:36:24.571Z,98049.84
2022-07-31T03:46:27.099Z,98044.88
2022-07-31T03:56:29.647Z,98044.88
2022-07-31T04:06:31.867Z,98035.28
2022-07-31T04:16:33.976Z,98040.28
2022-07-31T04:26:36.723Z,98035.72
2022-07-31T04:36:39.882Z,98051.88
2022-07-31T04:46:44.131Z,98051.94
2022-07-31T04:56:48.662Z,98050.00
2022-07-31T05:06:52.696Z,98048.56
2022-07-31T05:16:54.996Z,98064.31
2022-07-31T05:26:57.421Z,98061.50
2022-07-31T05:37:03.880Z,98067.72
2022-07-31T05:47:08.440Z,98058.75
2022-07-31T05:57:10.608Z,98066.41
2022-07-31T06:07:13.004Z,98064.72
2022-07-31T06:17:15.727Z,98065.22
2022-07-31T06:27:33.301Z,98067.78
2022-07-31T06:37:37.107Z,98077.00
2022-07-31T06:47:39.229Z,98075.00
2022-07-31T06:57:41.951Z,98071.66
2022-07-31T07:07:44.684Z,98083.53
2022-07-31T07:17:47.884Z,98088.66
2022-07-31T07:27:50.730Z,98090.25
2022-07-31T07:37:53.776Z,98074.81
2022-07-31T07:48:06.496Z,98075.59
2022-07-31T07:58:12.202Z,98062.91
2022-07-31T08:08:14.728Z,98068.13
2022-07-31T08:18:18.236Z,98069.38
2022-07-31T08:28:24.090Z,98067.13
2022-07-31T08:38:26.650Z,98073.03
2022-07-31T08:48:32.997Z,98064.81
2022-07-31T08:58:39.562Z,98055.94
2022-07-31T09:08:43.794Z,98070.41
2022-07-31T09:19:03.734Z,98062.16
2022-07-31T09:29:40.842Z,98065.94
2022-07-31T09:39:52.794Z,98062.38
2022-07-31T09:49:58.688Z,98064.13
2022-07-31T10:00:01.349Z,98049.59
2022-07-31T10:10:08.312Z,98067.94
2022-07-31T10:20:17.780Z,98061.88
2022-07-31T10:30:24.815Z,98054.06
2022-07-31T10:40:40.661Z,98056.72
2022-07-31T10:50:47.669Z,98032.03
2022-07-31T11:00:53.322Z,98024.22
2022-07-31T11:10:57.734Z,98017.75
2022-07-31T11:21:13.633Z,98015.00
2022-07-31T11:31:30.945Z,98001.84
2022-07-31T11:41:44.241Z,97996.25
2022-07-31T11:51:48.453Z,97982.69
2022-07-31T12:01:51.077Z,97989.47
2022-07-31T12:11:54.431Z,97970.62
2022-07-31T12:22:05.305Z,97960.03
2022-07-31T12:32:08.540Z,97963.31
2022-07-31T12:42:22.244Z,97962.41
2022-07-31T12:52:35.260Z,97951.16
2022-07-31T13:02:38.258Z,97935.41
2022-07-31T13:12:41.239Z,97928.03
2022-07-31T13:22:44.235Z,97919.47
2022-07-31T13:32:47.785Z,97913.41
2022-07-31T13:42:50.401Z,97897.03
2022-07-31T13:52:52.989Z,97890.97
2022-07-31T14:02:56.011Z,97887.09
2022-07-31T14:12:59.969Z,97874.72
2022-07-31T14:23:05.381Z,97873.09
2022-07-31T14:33:08.435Z,97860.13
2022-07-31T14:43:12.639Z,97866.75
2022-07-31T14:53:15.910Z,97841.81
2022-07-31T15:03:18.768Z,97842.59
2022-07-31T15:13:21.645Z,97833.56
2022-07-31T15:23:25.909Z,97819.41
2022-07-31T15:33:39.939Z,97809.56
2022-07-31T15:43:43.992Z,97810.69
2022-07-31T15:53:46.403Z,97798.66
2022-07-31T16:03:51.125Z,97790.19
2022-07-31T16:13:57.341Z,97783.66
2022-07-31T16:23:59.926Z,97771.41
2022-07-31T16:34:03.246Z,97765.81
2022-07-31T16:44:06.759Z,97758.63
2022-07-31T16:54:14.456Z,97759.44
2022-07-31T17:04:19.233Z,97749.84
2022-07-31T17:14:25.884Z,97749.78
2022-07-31T17:24:28.389Z,97749.56
2022-07-31T17:34:30.922Z,97739.72
2022-07-31T17:44:33.962Z,97747.34
2022-07-31T17:54:37.355Z,97759.00
2022-07-31T18:04:40.639Z,97755.38
2022-07-31T18:14:45.332Z,97756.53
2022-07-31T18:24:49.974Z,97760.19
2022-07-31T18:34:53.145Z,97763.19
2022-07-31T18:44:57.602Z,97760.19
2022-07-31T18:55:01.237Z,97764.28
2022-07-31T19:05:09.033Z,97770.69
2022-07-31T19:15:18.126Z,97773.91
2022-07-31T19:25:20.749Z,97777.03
2022-07-31T19:35:24.923Z,97778.53
2022-07-31T19:45:28.246Z,97787.94
2022-07-31T19:55:36.146Z,97790.19
2022-07-31T20:05:40.432Z,97798.41
2022-07-31T20:15:51.700Z,97803.91
2022-07-31T20:25:55.196Z,97811.47
2022-07-31T20:35:57.737Z,97808.44
2022-07-31T20:46:01.684Z,97808.59
2022-07-31T20:56:06.213Z,97816.66
2022-07-31T21:06:09.591Z,97818.03
2022-07-31T21:16:12.426Z,97816.97
2022-07-31T21:26:16.989Z,97820.72
2022-07-31T21:36:21.451Z,97822.50
2022-07-31T21:46:25.438Z,97847.34
2022-07-31T21:56:28.819Z,97872.38
2022-07-31T22:06:50.318Z,97875.28
2022-07-31T22:16:52.902Z,97876.75
2022-07-31T22:27:16.709Z,97889.19
2022-07-31T22:37:19.474Z,97886.41
2022-07-31T22:47:23.042Z,97887.31
2022-07-31T22:57:25.424Z,97893.84
2022-07-31T23:07:27.821Z,97896.66
2022-07-31T23:17:30.096Z,97895.31
2022-07-31T23:27:33.455Z,97907.31
2022-07-31T23:37:35.692Z,97907.50
2022-07-31T23:47:45.444Z,97909.16
2022-07-31T23:57:48.945Z,97903.75
